Accueil
METAR-TAF:

METAR-TAF

Aéroports :

Lydd, Angleterre

Aéroport de Lydd

latitude: 50-57N, longitude: 000-56E, altitude: 3 m

Observation

Le bulletin a été fait il y a 12 minutes, à 01:50 UTC
Vent 4 kt de nord-ouest
Température 7°C
Humidité 100%
Pression 1021 hPa
Visibilité: 5000 m
brume

METAR: EGMD 200150Z AUTO 32004KT 5000 BR NCD 07/07 Q1021

Heure: 03:02 (02:02 UTC)

Prévision

Le bulletin a été fait il y a 1 heure et 28 minutes, à 00:34 UTC
Prévision valable du 20 à 00 UTC au 20 à 09 UTC
Vent 5 kt de ouest/nord-ouest
Visibilité: 3000 m
Quelques nuages à une hauteur de 4500 ft
brume
Temporairement
du 20 à 00 UTC au 20 à 08 UTC
Visibilité: 0300 m
Nuages fragmentés à une hauteur de 100 ft
brouillard
Probabilité 30% :
Temporairement
du 20 à 00 UTC au 20 à 09 UTC
Visibilité: 8000 m

TAF: EGMD 200034Z 2000/2009 30005KT 3000 BR FEW045 TEMPO 2000/2008 0300 FG BKN001 PROB30 TEMPO 2000/2009 8000 NSW

Observations et prévisions météorologiques de plus de 4000 aéroports (messages METAR et TAF).

Les stations disponibles sont représentées par des disques jaunes et rouges sur la carte.

Passer la souris dessus pour voir le nom de la station.

Cliquer dessus pour voir les observations et prévisions météorologiques.

Pour changer de carte: cliquez sur les boutons verts avec une croix noire pour zoomer, sur le bouton vert avec un tiret pour effectuer un zoom arrière, ou sur les flèches vertes pour les cartes adjacentes.


METAR-TAF: